sensor_id;sensor_type;location;lat;lon;timestamp;temperature;humidity
43087;DHT22;28708;52.224;6.924;2024-03-07T00:00:03;5.40;99.90
43087;DHT22;28708;52.224;6.924;2024-03-07T00:02:37;5.40;99.90
43087;DHT22;28708;52.224;6.924;2024-03-07T00:05:03;5.40;99.90
43087;DHT22;28708;52.224;6.924;2024-03-07T00:07:29;5.50;99.90
43087;DHT22;28708;52.224;6.924;2024-03-07T00:09:55;5.60;99.90
43087;DHT22;28708;52.224;6.924;2024-03-07T00:12:21;5.40;99.90
43087;DHT22;28708;52.224;6.924;2024-03-07T00:14:48;5.30;99.90
43087;DHT22;28708;52.224;6.924;2024-03-07T00:17:13;5.40;99.90
43087;DHT22;28708;52.224;6.924;2024-03-07T00:19:39;5.30;99.90
43087;DHT22;28708;52.224;6.924;2024-03-07T00:22:05;5.30;99.90
43087;DHT22;28708;52.224;6.924;2024-03-07T00:24:30;5.20;99.90
43087;DHT22;28708;52.224;6.924;2024-03-07T00:26:56;5.30;99.90
43087;DHT22;28708;52.224;6.924;2024-03-07T00:29:23;5.20;99.90
43087;DHT22;28708;52.224;6.924;2024-03-07T00:31:49;5.20;99.90
43087;DHT22;28708;52.224;6.924;2024-03-07T00:34:15;5.30;99.90
43087;DHT22;28708;52.224;6.924;2024-03-07T00:36:45;5.30;99.90
43087;DHT22;28708;52.224;6.924;2024-03-07T00:39:11;5.30;99.90
43087;DHT22;28708;52.224;6.924;2024-03-07T00:41:41;5.30;99.90
43087;DHT22;28708;52.224;6.924;2024-03-07T00:44:07;5.20;99.90
43087;DHT22;28708;52.224;6.924;2024-03-07T00:46:35;5.10;99.90
43087;DHT22;28708;52.224;6.924;2024-03-07T00:49:01;5.00;99.90
43087;DHT22;28708;52.224;6.924;2024-03-07T00:51:27;5.00;99.90
43087;DHT22;28708;52.224;6.924;2024-03-07T00:53:53;5.00;99.90
43087;DHT22;28708;52.224;6.924;2024-03-07T00:56:20;4.90;99.90
43087;DHT22;28708;52.224;6.924;2024-03-07T00:58:48;4.90;99.90
43087;DHT22;28708;52.224;6.924;2024-03-07T01:01:13;4.80;99.90
43087;DHT22;28708;52.224;6.924;2024-03-07T01:03:41;4.80;99.90
43087;DHT22;28708;52.224;6.924;2024-03-07T01:06:06;4.80;99.90
43087;DHT22;28708;52.224;6.924;2024-03-07T01:08:33;4.80;99.90
43087;DHT22;28708;52.224;6.924;2024-03-07T01:11:00;4.80;99.90
43087;DHT22;28708;52.224;6.924;2024-03-07T01:13:26;4.70;99.90
43087;DHT22;28708;52.224;6.924;2024-03-07T01:15:52;4.70;99.90
43087;DHT22;28708;52.224;6.924;2024-03-07T01:18:17;4.80;99.90
43087;DHT22;28708;52.224;6.924;2024-03-07T01:20:43;4.60;99.90
43087;DHT22;28708;52.224;6.924;2024-03-07T01:23:09;4.60;99.90
43087;DHT22;28708;52.224;6.924;2024-03-07T01:25:36;4.60;99.90
43087;DHT22;28708;52.224;6.924;2024-03-07T01:28:01;4.60;99.90
43087;DHT22;28708;52.224;6.924;2024-03-07T01:30:29;4.70;99.90
43087;DHT22;28708;52.224;6.924;2024-03-07T01:32:55;4.60;99.90
43087;DHT22;28708;52.224;6.924;2024-03-07T01:35:21;4.60;99.90
43087;DHT22;28708;52.224;6.924;2024-03-07T01:37:46;4.60;99.90
43087;DHT22;28708;52.224;6.924;2024-03-07T01:40:12;4.60;99.90
43087;DHT22;28708;52.224;6.924;2024-03-07T01:42:40;4.60;99.90
43087;DHT22;28708;52.224;6.924;2024-03-07T01:45:06;4.50;99.90
43087;DHT22;28708;52.224;6.924;2024-03-07T01:47:34;4.50;99.90
43087;DHT22;28708;52.224;6.924;2024-03-07T01:50:02;4.60;99.90
43087;DHT22;28708;52.224;6.924;2024-03-07T01:52:29;4.60;99.90
43087;DHT22;28708;52.224;6.924;2024-03-07T01:54:56;4.50;99.90
43087;DHT22;28708;52.224;6.924;2024-03-07T01:57:22;4.50;99.90
43087;DHT22;28708;52.224;6.924;2024-03-07T01:59:48;4.30;99.90
43087;DHT22;28708;52.224;6.924;2024-03-07T02:02:16;4.30;99.90
43087;DHT22;28708;52.224;6.924;2024-03-07T02:04:43;4.30;99.90
43087;DHT22;28708;52.224;6.924;2024-03-07T02:07:09;4.30;99.90
43087;DHT22;28708;52.224;6.924;2024-03-07T02:09:37;4.40;99.90
43087;DHT22;28708;52.224;6.924;2024-03-07T02:12:03;4.30;99.90
43087;DHT22;28708;52.224;6.924;2024-03-07T02:14:29;4.30;99.90
43087;DHT22;28708;52.224;6.924;2024-03-07T02:16:55;4.20;99.90
43087;DHT22;28708;52.224;6.924;2024-03-07T02:19:24;4.20;99.90
43087;DHT22;28708;52.224;6.924;2024-03-07T02:21:50;4.30;99.90
43087;DHT22;28708;52.224;6.924;2024-03-07T02:24:15;4.20;99.90
43087;DHT22;28708;52.224;6.924;2024-03-07T02:26:41;4.10;99.90
43087;DHT22;28708;52.224;6.924;2024-03-07T02:29:07;4.20;99.90
43087;DHT22;28708;52.224;6.924;2024-03-07T02:31:33;4.10;99.90
43087;DHT22;28708;52.224;6.924;2024-03-07T02:34:03;4.20;99.90
43087;DHT22;28708;52.224;6.924;2024-03-07T02:36:29;4.10;99.90
43087;DHT22;28708;52.224;6.924;2024-03-07T02:38:55;4.10;99.90
43087;DHT22;28708;52.224;6.924;2024-03-07T02:41:21;4.10;99.90
43087;DHT22;28708;52.224;6.924;2024-03-07T02:43:46;4.10;99.90
43087;DHT22;28708;52.224;6.924;2024-03-07T02:46:12;4.20;99.90
43087;DHT22;28708;52.224;6.924;2024-03-07T02:48:38;4.30;99.90
43087;DHT22;28708;52.224;6.924;2024-03-07T02:51:05;4.20;99.90
43087;DHT22;28708;52.224;6.924;2024-03-07T02:53:34;4.20;99.90
43087;DHT22;28708;52.224;6.924;2024-03-07T02:55:59;4.20;99.90
43087;DHT22;28708;52.224;6.924;2024-03-07T02:58:25;4.20;99.90
43087;DHT22;28708;52.224;6.924;2024-03-07T03:00:58;4.20;99.90
43087;DHT22;28708;52.224;6.924;2024-03-07T03:03:27;4.10;99.90
43087;DHT22;28708;52.224;6.924;2024-03-07T03:05:55;4.20;99.90
43087;DHT22;28708;52.224;6.924;2024-03-07T03:08:21;4.10;99.90
43087;DHT22;28708;52.224;6.924;2024-03-07T03:10:47;4.00;99.90
43087;DHT22;28708;52.224;6.924;2024-03-07T03:13:13;3.90;99.90
43087;DHT22;28708;52.224;6.924;2024-03-07T03:15:39;4.00;99.90
43087;DHT22;28708;52.224;6.924;2024-03-07T03:18:04;4.00;99.90
43087;DHT22;28708;52.224;6.924;2024-03-07T03:20:31;4.10;99.90
43087;DHT22;28708;52.224;6.924;2024-03-07T03:23:02;4.10;99.90
43087;DHT22;28708;52.224;6.924;2024-03-07T03:25:28;4.00;99.90
43087;DHT22;28708;52.224;6.924;2024-03-07T03:27:54;3.90;99.90
43087;DHT22;28708;52.224;6.924;2024-03-07T03:30:20;3.80;99.90
43087;DHT22;28708;52.224;6.924;2024-03-07T03:32:47;3.70;99.90
43087;DHT22;28708;52.224;6.924;2024-03-07T03:35:13;3.70;99.90
43087;DHT22;28708;52.224;6.924;2024-03-07T03:37:43;3.70;99.90
43087;DHT22;28708;52.224;6.924;2024-03-07T03:40:09;3.60;99.90
43087;DHT22;28708;52.224;6.924;2024-03-07T03:42:39;3.60;99.90
43087;DHT22;28708;52.224;6.924;2024-03-07T03:45:06;3.60;99.90
43087;DHT22;28708;52.224;6.924;2024-03-07T03:47:37;3.60;99.90
43087;DHT22;28708;52.224;6.924;2024-03-07T03:50:07;3.60;99.90
43087;DHT22;28708;52.224;6.924;2024-03-07T03:52:34;3.70;99.90
43087;DHT22;28708;52.224;6.924;2024-03-07T03:55:03;3.60;99.90
43087;DHT22;28708;52.224;6.924;2024-03-07T03:57:31;3.60;99.90
43087;DHT22;28708;52.224;6.924;2024-03-07T03:59:57;3.50;99.90
43087;DHT22;28708;52.224;6.924;2024-03-07T04:02:23;3.60;99.90
43087;DHT22;28708;52.224;6.924;2024-03-07T04:04:50;3.60;99.90
43087;DHT22;28708;52.224;6.924;2024-03-07T04:07:17;3.50;99.90
43087;DHT22;28708;52.224;6.924;2024-03-07T04:09:44;3.50;99.90
43087;DHT22;28708;52.224;6.924;2024-03-07T04:12:10;3.60;99.90
43087;DHT22;28708;52.224;6.924;2024-03-07T04:14:39;3.60;99.90
43087;DHT22;28708;52.224;6.924;2024-03-07T04:17:04;3.50;99.90
43087;DHT22;28708;52.224;6.924;2024-03-07T04:19:32;3.50;99.90
43087;DHT22;28708;52.224;6.924;2024-03-07T04:21:58;3.50;99.90
43087;DHT22;28708;52.224;6.924;2024-03-07T04:24:25;3.50;99.90
43087;DHT22;28708;52.224;6.924;2024-03-07T04:26:50;3.30;99.90
43087;DHT22;28708;52.224;6.924;2024-03-07T04:29:19;3.40;99.90
43087;DHT22;28708;52.224;6.924;2024-03-07T04:31:44;3.30;99.90
43087;DHT22;28708;52.224;6.924;2024-03-07T04:34:11;3.20;99.90
43087;DHT22;28708;52.224;6.924;2024-03-07T04:36:37;3.20;99.90
43087;DHT22;28708;52.224;6.924;2024-03-07T04:39:03;3.10;99.90
43087;DHT22;28708;52.224;6.924;2024-03-07T04:41:30;3.20;99.90
43087;DHT22;28708;52.224;6.924;2024-03-07T04:43:55;3.10;99.90
43087;DHT22;28708;52.224;6.924;2024-03-07T04:46:21;3.10;99.90
43087;DHT22;28708;52.224;6.924;2024-03-07T04:48:47;3.00;99.90
43087;DHT22;28708;52.224;6.924;2024-03-07T04:51:12;3.10;99.90
43087;DHT22;28708;52.224;6.924;2024-03-07T04:53:39;3.00;99.90
43087;DHT22;28708;52.224;6.924;2024-03-07T04:56:07;3.20;99.90
43087;DHT22;28708;52.224;6.924;2024-03-07T04:58:35;3.10;99.90
43087;DHT22;28708;52.224;6.924;2024-03-07T05:01:01;3.20;99.90
43087;DHT22;28708;52.224;6.924;2024-03-07T05:03:27;3.00;99.90
43087;DHT22;28708;52.224;6.924;2024-03-07T05:05:53;3.00;99.90
43087;DHT22;28708;52.224;6.924;2024-03-07T05:08:19;2.90;99.90
43087;DHT22;28708;52.224;6.924;2024-03-07T05:10:44;3.00;99.90
43087;DHT22;28708;52.224;6.924;2024-03-07T05:13:10;2.90;99.90
43087;DHT22;28708;52.224;6.924;2024-03-07T05:15:36;3.00;99.90
43087;DHT22;28708;52.224;6.924;2024-03-07T05:18:02;3.00;99.90
43087;DHT22;28708;52.224;6.924;2024-03-07T05:20:28;3.00;99.90
43087;DHT22;28708;52.224;6.924;2024-03-07T05:22:54;2.90;99.90
43087;DHT22;28708;52.224;6.924;2024-03-07T05:25:20;2.90;99.90
43087;DHT22;28708;52.224;6.924;2024-03-07T05:27:47;2.90;99.90
43087;DHT22;28708;52.224;6.924;2024-03-07T05:30:16;2.90;99.90
43087;DHT22;28708;52.224;6.924;2024-03-07T05:32:42;2.90;99.90
43087;DHT22;28708;52.224;6.924;2024-03-07T05:35:08;2.90;99.90
43087;DHT22;28708;52.224;6.924;2024-03-07T05:37:36;2.90;99.90
43087;DHT22;28708;52.224;6.924;2024-03-07T05:40:02;2.90;99.90
43087;DHT22;28708;52.224;6.924;2024-03-07T05:42:29;2.90;99.90
43087;DHT22;28708;52.224;6.924;2024-03-07T05:44:55;2.80;99.90
43087;DHT22;28708;52.224;6.924;2024-03-07T05:47:20;2.80;99.90
43087;DHT22;28708;52.224;6.924;2024-03-07T05:49:47;2.80;99.90
43087;DHT22;28708;52.224;6.924;2024-03-07T05:52:13;2.80;99.90
43087;DHT22;28708;52.224;6.924;2024-03-07T05:54:38;2.80;99.90
43087;DHT22;28708;52.224;6.924;2024-03-07T05:57:04;2.70;99.90
43087;DHT22;28708;52.224;6.924;2024-03-07T05:59:32;2.60;99.90
43087;DHT22;28708;52.224;6.924;2024-03-07T06:01:59;2.60;99.90
43087;DHT22;28708;52.224;6.924;2024-03-07T06:04:24;2.70;99.90
43087;DHT22;28708;52.224;6.924;2024-03-07T06:06:50;2.70;99.90
43087;DHT22;28708;52.224;6.924;2024-03-07T06:09:16;2.70;99.90
43087;DHT22;28708;52.224;6.924;2024-03-07T06:11:46;2.60;99.90
43087;DHT22;28708;52.224;6.924;2024-03-07T06:14:12;2.60;99.90
43087;DHT22;28708;52.224;6.924;2024-03-07T06:16:39;2.60;99.90
43087;DHT22;28708;52.224;6.924;2024-03-07T06:19:06;2.50;99.90
43087;DHT22;28708;52.224;6.924;2024-03-07T06:21:38;2.50;99.90
43087;DHT22;28708;52.224;6.924;2024-03-07T06:24:07;2.60;99.90
43087;DHT22;28708;52.224;6.924;2024-03-07T06:26:36;2.50;99.90
43087;DHT22;28708;52.224;6.924;2024-03-07T06:29:06;2.60;99.90
43087;DHT22;28708;52.224;6.924;2024-03-07T06:31:32;2.60;99.90
43087;DHT22;28708;52.224;6.924;2024-03-07T06:33:58;2.70;99.90
43087;DHT22;28708;52.224;6.924;2024-03-07T06:36:24;2.60;99.90
43087;DHT22;28708;52.224;6.924;2024-03-07T06:38:51;2.70;99.90
43087;DHT22;28708;52.224;6.924;2024-03-07T06:41:16;2.70;99.90
43087;DHT22;28708;52.224;6.924;2024-03-07T06:43:43;2.60;99.90
43087;DHT22;28708;52.224;6.924;2024-03-07T06:46:10;2.60;99.90
43087;DHT22;28708;52.224;6.924;2024-03-07T06:48:38;2.80;99.90
43087;DHT22;28708;52.224;6.924;2024-03-07T06:51:05;2.80;99.90
43087;DHT22;28708;52.224;6.924;2024-03-07T06:53:31;2.80;99.90
43087;DHT22;28708;52.224;6.924;2024-03-07T06:55:57;2.70;99.90
43087;DHT22;28708;52.224;6.924;2024-03-07T06:58:23;2.70;99.90
43087;DHT22;28708;52.224;6.924;2024-03-07T07:00:49;2.80;99.90
43087;DHT22;28708;52.224;6.924;2024-03-07T07:03:18;2.80;99.90
43087;DHT22;28708;52.224;6.924;2024-03-07T07:05:45;2.80;99.90
43087;DHT22;28708;52.224;6.924;2024-03-07T07:08:11;2.80;99.90
43087;DHT22;28708;52.224;6.924;2024-03-07T07:10:39;2.90;99.90
43087;DHT22;28708;52.224;6.924;2024-03-07T07:13:06;2.90;99.90
43087;DHT22;28708;52.224;6.924;2024-03-07T07:15:31;3.00;99.90
43087;DHT22;28708;52.224;6.924;2024-03-07T07:17:58;3.00;99.90
43087;DHT22;28708;52.224;6.924;2024-03-07T07:20:24;3.00;99.90
43087;DHT22;28708;52.224;6.924;2024-03-07T07:22:50;3.00;99.90
43087;DHT22;28708;52.224;6.924;2024-03-07T07:25:16;3.10;99.90
43087;DHT22;28708;52.224;6.924;2024-03-07T07:30:13;3.20;99.90
43087;DHT22;28708;52.224;6.924;2024-03-07T07:32:40;3.20;99.90
43087;DHT22;28708;52.224;6.924;2024-03-07T07:35:07;3.30;99.90
43087;DHT22;28708;52.224;6.924;2024-03-07T07:37:40;3.30;99.90
43087;DHT22;28708;52.224;6.924;2024-03-07T07:40:14;3.30;99.90
43087;DHT22;28708;52.224;6.924;2024-03-07T07:42:41;3.40;99.90
43087;DHT22;28708;52.224;6.924;2024-03-07T07:45:11;3.50;99.90
43087;DHT22;28708;52.224;6.924;2024-03-07T07:47:40;3.50;99.90
43087;DHT22;28708;52.224;6.924;2024-03-07T07:50:18;3.50;99.90
43087;DHT22;28708;52.224;6.924;2024-03-07T07:52:46;3.60;99.90
43087;DHT22;28708;52.224;6.924;2024-03-07T07:55:14;3.70;99.90
43087;DHT22;28708;52.224;6.924;2024-03-07T07:58:00;3.70;99.90
43087;DHT22;28708;52.224;6.924;2024-03-07T08:00:30;3.80;99.90
43087;DHT22;28708;52.224;6.924;2024-03-07T08:03:01;3.90;99.90
43087;DHT22;28708;52.224;6.924;2024-03-07T08:05:31;4.00;99.90
43087;DHT22;28708;52.224;6.924;2024-03-07T08:08:03;4.00;99.90
43087;DHT22;28708;52.224;6.924;2024-03-07T08:10:30;4.20;99.90
43087;DHT22;28708;52.224;6.924;2024-03-07T08:13:00;4.20;99.90
43087;DHT22;28708;52.224;6.924;2024-03-07T08:15:27;4.30;99.90
43087;DHT22;28708;52.224;6.924;2024-03-07T08:17:53;4.20;99.90
43087;DHT22;28708;52.224;6.924;2024-03-07T08:20:21;4.30;99.90
43087;DHT22;28708;52.224;6.924;2024-03-07T08:22:49;4.40;99.90
43087;DHT22;28708;52.224;6.924;2024-03-07T08:25:19;4.40;99.90
43087;DHT22;28708;52.224;6.924;2024-03-07T08:27:47;4.50;99.90
43087;DHT22;28708;52.224;6.924;2024-03-07T08:30:14;4.50;99.90
43087;DHT22;28708;52.224;6.924;2024-03-07T08:32:44;4.50;99.90
43087;DHT22;28708;52.224;6.924;2024-03-07T08:35:11;4.50;99.90
43087;DHT22;28708;52.224;6.924;2024-03-07T08:37:44;4.40;99.90
43087;DHT22;28708;52.224;6.924;2024-03-07T08:40:10;4.50;99.90
43087;DHT22;28708;52.224;6.924;2024-03-07T08:42:37;4.50;99.90
43087;DHT22;28708;52.224;6.924;2024-03-07T08:45:04;4.60;99.90
43087;DHT22;28708;52.224;6.924;2024-03-07T08:47:34;4.70;99.90
43087;DHT22;28708;52.224;6.924;2024-03-07T08:50:01;4.60;99.90
43087;DHT22;28708;52.224;6.924;2024-03-07T08:52:31;4.50;99.90
43087;DHT22;28708;52.224;6.924;2024-03-07T08:54:57;4.50;99.90
43087;DHT22;28708;52.224;6.924;2024-03-07T08:57:23;4.50;99.90
43087;DHT22;28708;52.224;6.924;2024-03-07T08:59:50;4.50;99.90
43087;DHT22;28708;52.224;6.924;2024-03-07T09:02:15;4.50;99.90
43087;DHT22;28708;52.224;6.924;2024-03-07T09:04:41;4.60;99.90
43087;DHT22;28708;52.224;6.924;2024-03-07T09:07:07;4.70;99.90
43087;DHT22;28708;52.224;6.924;2024-03-07T09:09:34;4.60;99.90
43087;DHT22;28708;52.224;6.924;2024-03-07T09:12:02;4.60;99.90
43087;DHT22;28708;52.224;6.924;2024-03-07T09:14:29;4.60;99.90
43087;DHT22;28708;52.224;6.924;2024-03-07T09:16:54;4.50;99.90
43087;DHT22;28708;52.224;6.924;2024-03-07T09:19:20;4.60;99.90
43087;DHT22;28708;52.224;6.924;2024-03-07T09:21:51;4.80;99.90
43087;DHT22;28708;52.224;6.924;2024-03-07T09:24:17;4.80;99.90
43087;DHT22;28708;52.224;6.924;2024-03-07T09:26:43;4.80;99.90
43087;DHT22;28708;52.224;6.924;2024-03-07T09:29:08;4.80;99.90
43087;DHT22;28708;52.224;6.924;2024-03-07T09:31:36;4.80;99.90
43087;DHT22;28708;52.224;6.924;2024-03-07T09:34:02;4.90;99.90
43087;DHT22;28708;52.224;6.924;2024-03-07T09:36:28;4.80;99.90
43087;DHT22;28708;52.224;6.924;2024-03-07T09:38:53;4.90;99.90
43087;DHT22;28708;52.224;6.924;2024-03-07T09:41:19;4.90;99.90
43087;DHT22;28708;52.224;6.924;2024-03-07T09:43:52;5.00;99.90
43087;DHT22;28708;52.224;6.924;2024-03-07T09:46:24;5.00;99.90
43087;DHT22;28708;52.224;6.924;2024-03-07T09:48:50;5.00;99.90
43087;DHT22;28708;52.224;6.924;2024-03-07T09:51:20;5.10;99.90
43087;DHT22;28708;52.224;6.924;2024-03-07T09:53:50;5.20;99.90
43087;DHT22;28708;52.224;6.924;2024-03-07T09:56:21;5.20;99.90
43087;DHT22;28708;52.224;6.924;2024-03-07T09:58:51;5.30;99.90
43087;DHT22;28708;52.224;6.924;2024-03-07T10:01:20;5.40;99.90
43087;DHT22;28708;52.224;6.924;2024-03-07T10:03:52;5.50;99.90
43087;DHT22;28708;52.224;6.924;2024-03-07T10:06:22;5.60;99.90
43087;DHT22;28708;52.224;6.924;2024-03-07T10:08:50;5.70;99.90
43087;DHT22;28708;52.224;6.924;2024-03-07T10:11:15;5.60;99.90
43087;DHT22;28708;52.224;6.924;2024-03-07T10:13:41;5.80;99.90
43087;DHT22;28708;52.224;6.924;2024-03-07T10:16:07;5.80;99.90
43087;DHT22;28708;52.224;6.924;2024-03-07T10:18:41;5.60;99.90
43087;DHT22;28708;52.224;6.924;2024-03-07T10:21:07;5.90;99.90
43087;DHT22;28708;52.224;6.924;2024-03-07T10:23:33;6.10;99.90
43087;DHT22;28708;52.224;6.924;2024-03-07T10:26:01;6.70;99.90
43087;DHT22;28708;52.224;6.924;2024-03-07T10:28:29;7.50;99.90
43087;DHT22;28708;52.224;6.924;2024-03-07T10:30:56;7.80;99.90
43087;DHT22;28708;52.224;6.924;2024-03-07T10:33:26;7.20;99.90
43087;DHT22;28708;52.224;6.924;2024-03-07T10:35:52;7.00;99.90
43087;DHT22;28708;52.224;6.924;2024-03-07T10:38:18;7.20;99.90
43087;DHT22;28708;52.224;6.924;2024-03-07T10:40:47;7.60;99.90
43087;DHT22;28708;52.224;6.924;2024-03-07T10:43:13;7.70;99.90
43087;DHT22;28708;52.224;6.924;2024-03-07T10:45:47;7.70;99.90
43087;DHT22;28708;52.224;6.924;2024-03-07T10:48:13;7.50;99.90
43087;DHT22;28708;52.224;6.924;2024-03-07T10:50:43;7.20;99.90
43087;DHT22;28708;52.224;6.924;2024-03-07T10:53:38;7.00;99.90
43087;DHT22;28708;52.224;6.924;2024-03-07T10:56:21;7.00;99.90
43087;DHT22;28708;52.224;6.924;2024-03-07T10:59:07;6.90;99.90
43087;DHT22;28708;52.224;6.924;2024-03-07T11:01:45;6.70;99.90
43087;DHT22;28708;52.224;6.924;2024-03-07T11:04:11;6.70;99.90
43087;DHT22;28708;52.224;6.924;2024-03-07T11:06:40;6.70;99.90
43087;DHT22;28708;52.224;6.924;2024-03-07T11:09:07;6.70;99.90
43087;DHT22;28708;52.224;6.924;2024-03-07T11:11:39;6.70;99.90
43087;DHT22;28708;52.224;6.924;2024-03-07T11:14:10;6.70;99.90
43087;DHT22;28708;52.224;6.924;2024-03-07T11:16:39;6.60;99.90
43087;DHT22;28708;52.224;6.924;2024-03-07T11:19:28;6.50;99.90
43087;DHT22;28708;52.224;6.924;2024-03-07T11:21:55;6.50;99.90
43087;DHT22;28708;52.224;6.924;2024-03-07T11:24:26;6.60;99.90
43087;DHT22;28708;52.224;6.924;2024-03-07T11:26:56;6.50;99.90
43087;DHT22;28708;52.224;6.924;2024-03-07T11:29:50;6.50;99.90
43087;DHT22;28708;52.224;6.924;2024-03-07T11:32:19;6.60;99.90
43087;DHT22;28708;52.224;6.924;2024-03-07T11:34:48;6.50;99.90
43087;DHT22;28708;52.224;6.924;2024-03-07T11:37:37;6.50;99.90
43087;DHT22;28708;52.224;6.924;2024-03-07T11:40:07;6.60;99.90
43087;DHT22;28708;52.224;6.924;2024-03-07T11:42:34;6.70;99.90
43087;DHT22;28708;52.224;6.924;2024-03-07T11:45:02;6.70;99.90
43087;DHT22;28708;52.224;6.924;2024-03-07T11:47:39;6.80;99.90
43087;DHT22;28708;52.224;6.924;2024-03-07T11:50:05;6.80;99.90
43087;DHT22;28708;52.224;6.924;2024-03-07T11:52:37;6.80;99.90
43087;DHT22;28708;52.224;6.924;2024-03-07T11:55:08;7.00;99.90
43087;DHT22;28708;52.224;6.924;2024-03-07T11:57:34;7.10;99.90
43087;DHT22;28708;52.224;6.924;2024-03-07T12:00:00;7.20;99.90
43087;DHT22;28708;52.224;6.924;2024-03-07T12:02:27;7.20;99.90
43087;DHT22;28708;52.224;6.924;2024-03-07T12:04:53;7.20;99.90
43087;DHT22;28708;52.224;6.924;2024-03-07T12:07:19;7.20;99.90
43087;DHT22;28708;52.224;6.924;2024-03-07T12:09:48;7.20;99.90
43087;DHT22;28708;52.224;6.924;2024-03-07T12:12:20;7.00;99.90
43087;DHT22;28708;52.224;6.924;2024-03-07T12:14:47;6.90;99.90
43087;DHT22;28708;52.224;6.924;2024-03-07T12:17:14;6.90;99.90
43087;DHT22;28708;52.224;6.924;2024-03-07T12:19:42;7.00;99.90
43087;DHT22;28708;52.224;6.924;2024-03-07T12:22:11;6.80;99.90
43087;DHT22;28708;52.224;6.924;2024-03-07T12:24:40;6.90;99.90
43087;DHT22;28708;52.224;6.924;2024-03-07T12:27:09;7.00;99.90
43087;DHT22;28708;52.224;6.924;2024-03-07T12:29:39;7.00;99.90
43087;DHT22;28708;52.224;6.924;2024-03-07T12:32:06;6.90;99.90
43087;DHT22;28708;52.224;6.924;2024-03-07T12:34:39;7.00;99.90
43087;DHT22;28708;52.224;6.924;2024-03-07T12:37:09;7.00;99.90
43087;DHT22;28708;52.224;6.924;2024-03-07T12:39:35;7.00;99.90
43087;DHT22;28708;52.224;6.924;2024-03-07T12:42:04;7.00;99.90
43087;DHT22;28708;52.224;6.924;2024-03-07T12:44:44;7.00;99.90
43087;DHT22;28708;52.224;6.924;2024-03-07T12:47:13;7.00;99.90
43087;DHT22;28708;52.224;6.924;2024-03-07T12:49:43;6.90;99.90
43087;DHT22;28708;52.224;6.924;2024-03-07T12:52:09;6.90;99.90
43087;DHT22;28708;52.224;6.924;2024-03-07T12:54:35;6.90;99.90
43087;DHT22;28708;52.224;6.924;2024-03-07T12:57:12;6.90;99.90
43087;DHT22;28708;52.224;6.924;2024-03-07T12:59:38;7.00;99.90
43087;DHT22;28708;52.224;6.924;2024-03-07T13:02:10;7.00;99.90
43087;DHT22;28708;52.224;6.924;2024-03-07T13:04:36;6.90;99.90
43087;DHT22;28708;52.224;6.924;2024-03-07T13:07:08;6.80;99.90
43087;DHT22;28708;52.224;6.924;2024-03-07T13:09:34;7.00;99.90
43087;DHT22;28708;52.224;6.924;2024-03-07T13:12:00;7.10;99.90
43087;DHT22;28708;52.224;6.924;2024-03-07T13:14:32;7.20;99.90
43087;DHT22;28708;52.224;6.924;2024-03-07T13:17:04;7.40;99.90
43087;DHT22;28708;52.224;6.924;2024-03-07T13:19:30;7.70;99.90
43087;DHT22;28708;52.224;6.924;2024-03-07T13:21:56;8.00;99.90
43087;DHT22;28708;52.224;6.924;2024-03-07T13:24:23;8.10;99.90
43087;DHT22;28708;52.224;6.924;2024-03-07T13:26:49;8.10;99.90
43087;DHT22;28708;52.224;6.924;2024-03-07T13:29:16;8.40;99.90
43087;DHT22;28708;52.224;6.924;2024-03-07T13:31:43;8.40;99.90
43087;DHT22;28708;52.224;6.924;2024-03-07T13:34:10;8.70;99.90
43087;DHT22;28708;52.224;6.924;2024-03-07T13:36:43;8.70;99.90
43087;DHT22;28708;52.224;6.924;2024-03-07T13:39:09;8.70;99.90
43087;DHT22;28708;52.224;6.924;2024-03-07T13:41:37;8.70;99.90
43087;DHT22;28708;52.224;6.924;2024-03-07T13:44:04;8.70;99.90
43087;DHT22;28708;52.224;6.924;2024-03-07T13:46:29;8.40;99.90
43087;DHT22;28708;52.224;6.924;2024-03-07T13:48:56;8.40;99.90
43087;DHT22;28708;52.224;6.924;2024-03-07T13:51:35;8.20;99.90
43087;DHT22;28708;52.224;6.924;2024-03-07T13:54:02;8.50;99.90
43087;DHT22;28708;52.224;6.924;2024-03-07T13:56:50;8.60;99.90
43087;DHT22;28708;52.224;6.924;2024-03-07T14:11:28;9.00;99.90
43087;DHT22;28708;52.224;6.924;2024-03-07T14:14:35;9.00;99.90
43087;DHT22;28708;52.224;6.924;2024-03-07T14:32:25;9.00;99.90
43087;DHT22;28708;52.224;6.924;2024-03-07T14:35:13;8.60;99.90
43087;DHT22;28708;52.224;6.924;2024-03-07T14:38:02;8.50;99.90
43087;DHT22;28708;52.224;6.924;2024-03-07T14:40:30;8.40;99.90
43087;DHT22;28708;52.224;6.924;2024-03-07T14:43:00;8.50;99.90
43087;DHT22;28708;52.224;6.924;2024-03-07T14:45:36;8.60;99.90
43087;DHT22;28708;52.224;6.924;2024-03-07T14:48:01;8.40;99.90
43087;DHT22;28708;52.224;6.924;2024-03-07T14:50:30;8.40;99.90
43087;DHT22;28708;52.224;6.924;2024-03-07T14:52:58;8.60;99.90
43087;DHT22;28708;52.224;6.924;2024-03-07T14:55:24;8.70;99.90
43087;DHT22;28708;52.224;6.924;2024-03-07T14:57:50;8.40;99.90
43087;DHT22;28708;52.224;6.924;2024-03-07T15:00:16;8.30;99.90
43087;DHT22;28708;52.224;6.924;2024-03-07T15:02:49;8.40;99.90
43087;DHT22;28708;52.224;6.924;2024-03-07T15:05:15;8.40;99.90
43087;DHT22;28708;52.224;6.924;2024-03-07T15:07:42;8.60;99.90
43087;DHT22;28708;52.224;6.924;2024-03-07T15:10:16;8.40;99.90
43087;DHT22;28708;52.224;6.924;2024-03-07T15:12:45;8.60;99.90
43087;DHT22;28708;52.224;6.924;2024-03-07T15:15:13;8.80;99.90
43087;DHT22;28708;52.224;6.924;2024-03-07T15:17:43;8.60;99.90
43087;DHT22;28708;52.224;6.924;2024-03-07T15:20:11;8.70;99.90
43087;DHT22;28708;52.224;6.924;2024-03-07T15:22:51;8.70;99.90
43087;DHT22;28708;52.224;6.924;2024-03-07T15:25:21;8.70;99.90
43087;DHT22;28708;52.224;6.924;2024-03-07T15:27:50;8.70;99.90
43087;DHT22;28708;52.224;6.924;2024-03-07T15:30:17;8.70;99.90
43087;DHT22;28708;52.224;6.924;2024-03-07T15:32:44;8.70;99.90
43087;DHT22;28708;52.224;6.924;2024-03-07T15:35:10;8.40;99.90
43087;DHT22;28708;52.224;6.924;2024-03-07T15:37:47;8.40;99.90
43087;DHT22;28708;52.224;6.924;2024-03-07T15:40:15;8.70;99.90
43087;DHT22;28708;52.224;6.924;2024-03-07T15:42:46;8.50;99.90
43087;DHT22;28708;52.224;6.924;2024-03-07T15:45:15;8.40;99.90
43087;DHT22;28708;52.224;6.924;2024-03-07T15:48:00;8.40;99.90
43087;DHT22;28708;52.224;6.924;2024-03-07T15:50:33;8.20;99.90
43087;DHT22;28708;52.224;6.924;2024-03-07T15:52:59;8.40;99.90
43087;DHT22;28708;52.224;6.924;2024-03-07T15:55:25;8.30;99.90
43087;DHT22;28708;52.224;6.924;2024-03-07T15:57:54;8.20;99.90
43087;DHT22;28708;52.224;6.924;2024-03-07T16:00:25;8.20;99.90
43087;DHT22;28708;52.224;6.924;2024-03-07T16:05:25;8.10;99.90
43087;DHT22;28708;52.224;6.924;2024-03-07T16:07:52;8.10;99.90
43087;DHT22;28708;52.224;6.924;2024-03-07T16:10:19;8.00;99.90
43087;DHT22;28708;52.224;6.924;2024-03-07T16:12:45;8.00;99.90
43087;DHT22;28708;52.224;6.924;2024-03-07T16:15:11;7.90;99.90
43087;DHT22;28708;52.224;6.924;2024-03-07T16:17:38;7.90;99.90
43087;DHT22;28708;52.224;6.924;2024-03-07T16:20:04;7.80;99.90
43087;DHT22;28708;52.224;6.924;2024-03-07T16:25:06;7.80;99.90